createdAt,value
2019-02-08T07:58:22.650Z,11.25
2019-02-08T07:58:30.818Z,11.25
2019-02-08T07:58:38.990Z,5.625
2019-02-08T07:58:47.212Z,11.25
2019-02-08T07:58:55.584Z,11.25
2019-02-08T07:59:03.825Z,11.25
2019-02-08T07:59:12.029Z,11.25
2019-02-08T07:59:21.252Z,11.25
2019-02-08T07:59:29.522Z,11.25
2019-02-08T07:59:37.769Z,11.25
2019-02-08T07:59:46.008Z,11.25
2019-02-08T07:59:54.227Z,11.25
2019-02-08T08:00:02.399Z,11.25
2019-02-08T08:00:10.587Z,11.25
2019-02-08T08:00:18.775Z,11.25
2019-02-08T08:00:26.967Z,11.25
2019-02-08T08:00:35.170Z,11.25
2019-02-08T08:00:44.482Z,11.25
2019-02-08T08:00:52.701Z,11.25
2019-02-08T08:01:00.868Z,11.25
2019-02-08T08:01:09.104Z,11.25
2019-02-08T08:01:17.292Z,11.25
2019-02-08T08:01:25.461Z,11.25
2019-02-08T08:01:33.646Z,11.25
2019-02-08T08:01:41.828Z,11.25
2019-02-08T08:01:50.061Z,11.25
2019-02-08T08:01:58.257Z,11.25
2019-02-08T08:02:06.442Z,11.25
2019-02-08T08:02:15.662Z,11.25
2019-02-08T08:02:23.936Z,11.25
2019-02-08T08:02:32.147Z,11.25
2019-02-08T08:02:40.292Z,11.25
2019-02-08T08:02:48.506Z,11.25
2019-02-08T08:02:56.728Z,11.25
2019-02-08T08:03:04.945Z,11.25
2019-02-08T08:03:13.136Z,11.25
2019-02-08T08:03:21.352Z,11.25
2019-02-08T08:03:29.725Z,11.25
2019-02-08T08:03:38.457Z,11.25
2019-02-08T08:03:46.899Z,11.25
2019-02-08T08:04:01.318Z,11.25
2019-02-08T08:04:08.548Z,11.25
2019-02-08T08:04:17.681Z,11.25
2019-02-08T08:04:26.534Z,11.25
2019-02-08T08:04:35.861Z,11.25
2019-02-08T08:04:44.883Z,11.25
2019-02-08T08:04:54.139Z,11.25
2019-02-08T08:05:02.916Z,11.25
2019-02-08T08:05:11.504Z,11.25
2019-02-08T08:05:20.250Z,11.25
2019-02-08T08:05:29.464Z,11.25
2019-02-08T08:05:38.351Z,11.25
2019-02-08T08:05:47.470Z,11.25
2019-02-08T08:05:56.546Z,11.25
2019-02-08T08:06:05.415Z,16.875
2019-02-08T08:06:14.823Z,16.875
2019-02-08T08:06:24.209Z,11.25
2019-02-08T08:06:33.252Z,11.25
2019-02-08T08:06:42.548Z,5.625
2019-02-08T08:06:51.936Z,11.25
2019-02-08T08:07:00.635Z,16.875
2019-02-08T08:07:09.826Z,11.25
2019-02-08T08:07:19.158Z,11.25
2019-02-08T08:07:28.438Z,11.25
2019-02-08T08:07:37.830Z,5.625
2019-02-08T08:07:48.055Z,11.25
2019-02-08T08:07:58.071Z,16.875
2019-02-08T08:08:08.064Z,0
2019-02-08T08:08:17.179Z,0
2019-02-08T08:08:25.878Z,5.625
2019-02-08T08:08:34.686Z,5.625
2019-02-08T08:08:43.700Z,5.625
2019-02-08T08:08:53.592Z,5.625
2019-02-08T08:09:02.457Z,5.625
2019-02-08T08:09:11.654Z,5.625
2019-02-08T08:09:20.768Z,5.625
2019-02-08T08:09:29.897Z,5.625
2019-02-08T08:09:39.843Z,5.625
2019-02-08T08:09:49.036Z,5.625
2019-02-08T08:09:58.180Z,5.625
2019-02-08T08:10:07.177Z,5.625
2019-02-08T08:10:16.323Z,5.625
2019-02-08T08:10:25.668Z,5.625
2019-02-08T08:10:36.985Z,5.625
2019-02-08T08:10:46.387Z,5.625
2019-02-08T08:10:55.714Z,5.625
2019-02-08T08:11:04.732Z,5.625
2019-02-08T08:11:14.711Z,5.625
2019-02-08T08:11:23.915Z,5.625
2019-02-08T08:11:33.203Z,5.625
2019-02-08T08:11:42.531Z,5.625
2019-02-08T08:11:51.916Z,5.625
2019-02-08T08:12:00.900Z,5.625
2019-02-08T08:12:10.037Z,5.625
2019-02-08T08:12:19.378Z,5.625
2019-02-08T08:12:28.035Z,5.625
2019-02-08T08:12:37.369Z,5.625
2019-02-08T08:12:46.712Z,5.625
2019-02-08T08:12:56.031Z,5.625
2019-02-08T08:13:05.000Z,5.625
2019-02-08T08:13:14.320Z,5.625
2019-02-08T08:13:23.668Z,5.625
2019-02-08T08:13:32.891Z,5.625
2019-02-08T08:13:41.789Z,5.625
2019-02-08T08:13:51.079Z,5.625
2019-02-08T08:14:00.163Z,5.625
2019-02-08T08:14:09.234Z,5.625
2019-02-08T08:14:18.617Z,5.625
2019-02-08T08:14:27.302Z,5.625
2019-02-08T08:14:35.480Z,5.625
2019-02-08T08:14:43.724Z,5.625
2019-02-08T08:14:51.915Z,5.625
2019-02-08T08:15:00.798Z,5.625
2019-02-08T08:15:10.015Z,5.625
2019-02-08T08:15:19.227Z,5.625
2019-02-08T08:15:28.287Z,5.625
2019-02-08T08:15:37.662Z,5.625
2019-02-08T08:15:47.117Z,5.625
2019-02-08T08:15:56.299Z,5.625
2019-02-08T08:16:05.322Z,5.625
2019-02-08T08:16:14.657Z,5.625
2019-02-08T08:16:24.063Z,5.625
2019-02-08T08:16:33.377Z,5.625
2019-02-08T08:16:42.430Z,5.625
2019-02-08T08:16:51.803Z,5.625
2019-02-08T08:17:00.800Z,5.625
2019-02-08T08:17:10.042Z,5.625
2019-02-08T08:17:19.421Z,5.625
2019-02-08T08:17:28.592Z,5.625
2019-02-08T08:17:37.946Z,5.625
2019-02-08T08:17:46.660Z,5.625
2019-02-08T08:17:55.994Z,5.625
2019-02-08T08:18:05.848Z,5.625
2019-02-08T08:18:14.876Z,5.625
2019-02-08T08:18:24.232Z,5.625
2019-02-08T08:18:33.569Z,5.625
2019-02-08T08:18:43.518Z,5.625
2019-02-08T08:18:52.823Z,5.625
2019-02-08T08:19:01.799Z,5.625
2019-02-08T08:19:11.191Z,5.625
2019-02-08T08:19:20.298Z,5.625
2019-02-08T08:19:30.619Z,5.625
2019-02-08T08:19:40.028Z,5.625
2019-02-08T08:19:49.378Z,5.625
2019-02-08T08:19:58.718Z,5.625
2019-02-08T08:20:07.679Z,5.625
2019-02-08T08:20:16.669Z,5.625
2019-02-08T08:20:26.057Z,5.625
2019-02-08T08:20:35.415Z,5.625
2019-02-08T08:20:44.800Z,5.625
2019-02-08T08:20:54.291Z,5.625
2019-02-08T08:21:03.361Z,5.625
2019-02-08T08:21:12.721Z,5.625
2019-02-08T08:21:22.075Z,5.625
2019-02-08T08:21:31.410Z,5.625
2019-02-08T08:21:40.784Z,5.625
2019-02-08T08:21:51.104Z,5.625
2019-02-08T08:22:00.246Z,11.25
2019-02-08T08:22:09.482Z,11.25
2019-02-08T08:22:18.628Z,11.25
2019-02-08T08:22:27.919Z,11.25
2019-02-08T08:22:37.262Z,11.25
2019-02-08T08:22:46.609Z,11.25
2019-02-08T08:22:55.939Z,11.25
2019-02-08T08:23:05.022Z,11.25
2019-02-08T08:23:14.895Z,11.25
2019-02-08T08:23:24.198Z,11.25
2019-02-08T08:23:33.553Z,11.25
2019-02-08T08:23:42.556Z,11.25
2019-02-08T08:23:51.929Z,11.25
2019-02-08T08:24:00.831Z,11.25
2019-02-08T08:24:10.044Z,11.25
2019-02-08T08:24:19.408Z,11.25
2019-02-08T08:24:28.099Z,11.25
2019-02-08T08:24:38.252Z,11.25
2019-02-08T08:24:47.615Z,11.25
2019-02-08T08:24:56.998Z,11.25
2019-02-08T08:25:05.760Z,11.25
2019-02-08T08:25:16.097Z,11.25
2019-02-08T08:25:33.601Z,11.25
2019-02-08T08:25:39.077Z,11.25
2019-02-08T08:25:48.537Z,11.25
2019-02-08T08:25:57.752Z,11.25
2019-02-08T08:26:06.602Z,11.25
2019-02-08T08:26:16.000Z,11.25
2019-02-08T08:26:24.772Z,11.25
2019-02-08T08:26:33.027Z,11.25
2019-02-08T08:26:42.124Z,11.25
2019-02-08T08:26:51.479Z,11.25
2019-02-08T08:27:00.504Z,11.25
2019-02-08T08:27:08.738Z,11.25
2019-02-08T08:27:17.914Z,11.25
2019-02-08T08:27:26.146Z,11.25
2019-02-08T08:27:34.827Z,5.625
2019-02-08T08:27:43.309Z,5.625
2019-02-08T08:27:52.066Z,247.5
2019-02-08T08:28:00.615Z,264.375
2019-02-08T08:28:08.949Z,264.375
2019-02-08T08:28:17.534Z,264.375
2019-02-08T08:28:26.093Z,264.375
2019-02-08T08:28:34.647Z,270
2019-02-08T08:28:43.165Z,264.375
2019-02-08T08:28:52.048Z,270
2019-02-08T08:29:01.594Z,264.375
2019-02-08T08:29:10.082Z,264.375
2019-02-08T08:29:18.690Z,264.375
2019-02-08T08:29:28.411Z,264.375
2019-02-08T08:29:37.187Z,264.375
2019-02-08T08:29:45.907Z,264.375
2019-02-08T08:29:54.621Z,264.375
2019-02-08T08:30:02.936Z,264.375
2019-02-08T08:30:12.481Z,264.375
2019-02-08T08:30:21.444Z,264.375
2019-02-08T08:30:30.615Z,264.375
2019-02-08T08:30:39.955Z,264.375
2019-02-08T08:30:48.861Z,264.375
2019-02-08T08:30:58.198Z,264.375
2019-02-08T08:31:07.137Z,264.375
2019-02-08T08:31:15.948Z,264.375
2019-02-08T08:31:25.283Z,264.375
2019-02-08T08:31:34.431Z,264.375
2019-02-08T08:31:43.891Z,264.375
2019-02-08T08:31:54.272Z,264.375
2019-02-08T08:32:03.326Z,264.375
2019-02-08T08:32:12.591Z,270
2019-02-08T08:32:21.968Z,270
2019-02-08T08:32:31.182Z,264.375
2019-02-08T08:32:40.582Z,264.375
2019-02-08T08:32:49.597Z,264.375
2019-02-08T08:32:58.944Z,264.375
2019-02-08T08:33:09.002Z,264.375
2019-02-08T08:33:19.375Z,264.375
2019-02-08T08:33:28.740Z,264.375
2019-02-08T08:33:37.910Z,264.375
2019-02-08T08:33:46.620Z,264.375
2019-02-08T08:33:55.777Z,264.375
2019-02-08T08:34:04.691Z,270
2019-02-08T08:34:14.932Z,264.375
2019-02-08T08:34:23.778Z,264.375
2019-02-08T08:34:32.731Z,270
2019-02-08T08:34:42.110Z,270
2019-02-08T08:34:51.441Z,270
2019-02-08T08:35:01.518Z,270
2019-02-08T08:35:10.852Z,270
2019-02-08T08:35:20.241Z,270
2019-02-08T08:35:28.685Z,270
2019-02-08T08:35:37.958Z,270
2019-02-08T08:35:47.425Z,264.375
2019-02-08T08:35:56.814Z,264.375
2019-02-08T08:36:05.828Z,270
2019-02-08T08:36:15.198Z,264.375
2019-02-08T08:36:24.655Z,264.375
2019-02-08T08:36:34.156Z,270
2019-02-08T08:36:43.341Z,264.375
2019-02-08T08:36:52.762Z,270
2019-02-08T08:37:01.801Z,270
2019-02-08T08:37:10.836Z,270
2019-02-08T08:37:20.186Z,270
2019-02-08T08:37:30.247Z,270
2019-02-08T08:37:39.652Z,270
2019-02-08T08:37:49.029Z,270
2019-02-08T08:37:58.280Z,270
2019-02-08T08:38:07.187Z,270
2019-02-08T08:38:16.576Z,270
2019-02-08T08:38:25.929Z,270
2019-02-08T08:38:35.350Z,270
2019-02-08T08:38:44.332Z,270
2019-02-08T08:38:53.541Z,270
2019-02-08T08:39:02.381Z,270
2019-02-08T08:39:11.241Z,270
2019-02-08T08:39:20.539Z,270
2019-02-08T08:39:29.009Z,270
2019-02-08T08:39:37.630Z,270
2019-02-08T08:39:47.526Z,270
2019-02-08T08:39:55.749Z,270
2019-02-08T08:40:03.996Z,275.625
2019-02-08T08:40:12.166Z,275.625
2019-02-08T08:40:20.416Z,281.25
2019-02-08T08:40:29.328Z,281.25
2019-02-08T08:40:37.953Z,275.625
2019-02-08T08:40:46.866Z,275.625
2019-02-08T08:40:55.259Z,275.625
2019-02-08T08:41:04.249Z,275.625
2019-02-08T08:41:12.695Z,275.625
2019-02-08T08:41:21.133Z,275.625
2019-02-08T08:41:29.476Z,275.625
2019-02-08T08:41:39.474Z,275.625
2019-02-08T08:41:48.065Z,275.625
2019-02-08T08:41:56.450Z,275.625
2019-02-08T08:42:04.803Z,275.625
2019-02-08T08:42:13.020Z,275.625
2019-02-08T08:42:21.386Z,275.625
2019-02-08T08:42:29.575Z,275.625
2019-02-08T08:42:37.754Z,275.625
2019-02-08T08:42:46.158Z,275.625
2019-02-08T08:42:55.383Z,281.25
2019-02-08T08:43:03.945Z,281.25
2019-02-08T08:43:12.852Z,281.25
2019-02-08T08:43:22.595Z,275.625
2019-02-08T08:43:30.817Z,275.625
2019-02-08T08:43:39.035Z,275.625
2019-02-08T08:43:47.238Z,275.625
2019-02-08T08:43:57.393Z,281.25
2019-02-08T08:44:06.335Z,281.25
2019-02-08T08:44:15.543Z,281.25
2019-02-08T08:44:24.074Z,286.875
2019-02-08T08:44:33.140Z,281.25
2019-02-08T08:44:42.468Z,281.25
2019-02-08T08:44:51.478Z,281.25
2019-02-08T08:45:00.505Z,281.25
2019-02-08T08:45:09.728Z,281.25
2019-02-08T08:45:18.582Z,281.25
2019-02-08T08:45:27.770Z,281.25
2019-02-08T08:45:36.759Z,281.25
2019-02-08T08:45:46.225Z,286.875
2019-02-08T08:45:56.442Z,281.25
2019-02-08T08:46:05.442Z,281.25
2019-02-08T08:46:14.782Z,281.25
2019-02-08T08:46:23.927Z,281.25
2019-02-08T08:46:32.792Z,281.25
2019-02-08T08:46:42.239Z,281.25
2019-02-08T08:46:52.242Z,286.875
2019-02-08T08:47:01.247Z,286.875
2019-02-08T08:47:10.604Z,286.875
2019-02-08T08:47:19.931Z,286.875
2019-02-08T08:47:28.766Z,286.875
2019-02-08T08:47:37.948Z,286.875
2019-02-08T08:47:46.905Z,286.875
2019-02-08T08:47:55.984Z,286.875
2019-02-08T08:48:05.021Z,286.875
2019-02-08T08:48:14.336Z,286.875
2019-02-08T08:48:23.438Z,286.875
2019-02-08T08:48:31.950Z,286.875
2019-02-08T08:48:41.647Z,292.5
2019-02-08T08:48:49.735Z,292.5
2019-02-08T08:48:58.868Z,292.5
2019-02-08T08:49:07.854Z,292.5
2019-02-08T08:49:16.901Z,292.5
2019-02-08T08:49:26.098Z,292.5
2019-02-08T08:49:35.272Z,292.5
2019-02-08T08:49:44.007Z,292.5
2019-02-08T08:49:52.971Z,292.5
2019-02-08T08:50:01.732Z,292.5
2019-02-08T08:50:11.060Z,292.5
2019-02-08T08:50:20.334Z,292.5
2019-02-08T08:50:29.644Z,292.5
2019-02-08T08:50:39.061Z,292.5
2019-02-08T08:50:50.548Z,298.125
2019-02-08T08:50:59.346Z,298.125
2019-02-08T08:51:08.451Z,298.125
2019-02-08T08:51:17.824Z,298.125
2019-02-08T08:51:26.889Z,298.125
2019-02-08T08:51:36.232Z,298.125
2019-02-08T08:51:45.535Z,298.125
2019-02-08T08:51:54.885Z,298.125
2019-02-08T08:52:03.727Z,298.125
2019-02-08T08:52:12.944Z,298.125
2019-02-08T08:52:22.161Z,298.125
2019-02-08T08:52:31.508Z,298.125
2019-02-08T08:52:40.398Z,298.125
2019-02-08T08:52:49.630Z,303.75
2019-02-08T08:52:59.036Z,303.75
2019-02-08T08:53:08.007Z,303.75
2019-02-08T08:53:17.302Z,303.75
2019-02-08T08:53:26.199Z,303.75
2019-02-08T08:53:35.377Z,303.75
2019-02-08T08:53:45.172Z,303.75
2019-02-08T08:53:54.198Z,303.75
2019-02-08T08:54:03.967Z,309.375
2019-02-08T08:54:12.206Z,309.375
2019-02-08T08:54:20.923Z,309.375
2019-02-08T08:54:29.827Z,309.375
2019-02-08T08:54:39.021Z,309.375
2019-02-08T08:54:48.371Z,309.375
2019-02-08T08:54:57.400Z,309.375
2019-02-08T08:55:05.630Z,309.375
2019-02-08T08:55:13.942Z,309.375
2019-02-08T08:55:22.786Z,315
2019-02-08T08:55:32.202Z,315
2019-02-08T08:55:44.589Z,315
2019-02-08T08:55:53.759Z,315
2019-02-08T08:56:02.834Z,315
2019-02-08T08:56:12.186Z,315
2019-02-08T08:56:21.376Z,315
2019-02-08T08:56:30.214Z,315
2019-02-08T08:56:39.956Z,315
2019-02-08T08:56:49.186Z,315
2019-02-08T08:56:58.441Z,315
2019-02-08T08:57:07.463Z,320.625
2019-02-08T08:57:17.548Z,320.625
2019-02-08T08:57:27.754Z,326.25
2019-02-08T08:57:38.118Z,320.625
2019-02-08T08:57:47.130Z,320.625
2019-02-08T08:57:56.552Z,320.625
2019-02-08T08:58:05.500Z,326.25
2019-02-08T08:58:14.705Z,320.625
2019-02-08T08:58:23.974Z,320.625
2019-02-08T08:58:33.987Z,320.625
2019-02-08T08:58:42.853Z,320.625
2019-02-08T08:58:52.232Z,320.625
2019-02-08T08:59:01.276Z,320.625
2019-02-08T08:59:12.079Z,320.625
2019-02-08T08:59:23.036Z,320.625
2019-02-08T08:59:33.032Z,326.25
2019-02-08T08:59:42.190Z,320.625
2019-02-08T08:59:51.564Z,320.625
2019-02-08T09:00:02.408Z,326.25
2019-02-08T09:00:12.985Z,326.25
2019-02-08T09:00:21.513Z,326.25
2019-02-08T09:00:30.752Z,326.25
2019-02-08T09:00:39.617Z,326.25
2019-02-08T09:00:48.816Z,326.25
2019-02-08T09:00:58.183Z,326.25
2019-02-08T09:01:06.849Z,331.875
2019-02-08T09:01:15.889Z,331.875
2019-02-08T09:01:26.135Z,326.25
2019-02-08T09:01:35.492Z,331.875
2019-02-08T09:01:44.334Z,331.875
2019-02-08T09:01:53.691Z,326.25
2019-02-08T09:02:02.380Z,326.25
2019-02-08T09:02:11.428Z,326.25
2019-02-08T09:02:20.755Z,326.25
2019-02-08T09:02:30.091Z,326.25
2019-02-08T09:02:39.437Z,326.25
2019-02-08T09:02:48.618Z,331.875
2019-02-08T09:02:57.834Z,331.875
2019-02-08T09:03:06.537Z,331.875
2019-02-08T09:03:15.437Z,331.875
2019-02-08T17:25:09.630Z,0
2019-02-08T17:25:17.906Z,0
2019-02-08T18:22:00.614Z,0
2019-02-08T18:22:09.759Z,0
2019-02-08T18:22:18.901Z,0
2019-02-08T18:22:28.105Z,0
2019-02-08T18:22:36.258Z,0
2019-02-08T18:22:44.423Z,0
2019-02-08T18:22:52.638Z,0
2019-02-08T18:23:00.847Z,0
2019-02-08T18:23:09.847Z,0
2019-02-08T18:23:18.482Z,0
2019-02-08T18:23:27.708Z,0
2019-02-08T18:23:37.102Z,0
2019-02-08T18:23:46.113Z,0
2019-02-08T18:23:55.180Z,0
2019-02-08T18:24:04.827Z,0
2019-02-08T18:24:15.163Z,0
2019-02-08T18:24:24.088Z,0
2019-02-08T18:24:32.723Z,0
2019-02-08T18:24:41.892Z,0
2019-02-08T18:24:50.905Z,0
2019-02-08T18:24:59.592Z,0
2019-02-08T18:25:08.325Z,0
2019-02-08T18:25:17.791Z,0
2019-02-08T18:25:26.615Z,0
2019-02-08T18:25:35.370Z,0
2019-02-08T18:25:44.079Z,0
2019-02-08T18:25:53.247Z,0
2019-02-08T18:26:03.349Z,0
2019-02-08T18:26:12.656Z,0
2019-02-08T18:26:21.797Z,0
2019-02-08T18:26:31.105Z,0
2019-02-08T18:26:40.457Z,0
2019-02-08T18:26:49.656Z,0
2019-02-08T18:26:58.847Z,0
2019-02-08T18:27:08.886Z,0
2019-02-08T18:27:18.255Z,0
2019-02-08T18:27:27.613Z,0
2019-02-08T18:27:36.980Z,0
2019-02-08T18:27:46.329Z,0
2019-02-08T18:27:55.691Z,0
2019-02-08T18:28:10.702Z,0
2019-02-08T18:28:18.059Z,0
2019-02-08T18:28:26.270Z,0
2019-02-08T18:28:35.601Z,0
2019-02-08T18:28:43.816Z,0
2019-02-08T18:28:51.956Z,0
2019-02-08T18:29:00.147Z,0
2019-02-08T18:29:08.318Z,0
2019-02-08T18:29:16.469Z,0
2019-02-08T18:29:24.653Z,0
2019-02-08T18:29:32.899Z,0
2019-02-08T18:29:41.056Z,0
2019-02-08T18:29:49.226Z,0
2019-02-08T18:29:57.420Z,0
2019-02-08T18:30:05.540Z,0
2019-02-08T18:30:15.050Z,0
2019-02-08T18:30:23.959Z,0
2019-02-08T18:30:32.261Z,0
2019-02-08T18:30:40.438Z,0
2019-02-08T18:30:49.163Z,0
2019-02-08T18:30:57.631Z,0
2019-02-08T18:31:06.219Z,0
2019-02-08T18:31:14.715Z,0
2019-02-08T18:31:23.289Z,0
2019-02-08T18:31:31.805Z,0
2019-02-08T18:31:40.306Z,0
2019-02-08T18:31:48.766Z,0
2019-02-08T18:31:57.356Z,0
2019-02-08T18:32:05.550Z,0
2019-02-08T18:32:14.407Z,0
2019-02-08T18:32:23.401Z,0
2019-02-08T18:32:32.489Z,0
2019-02-08T18:32:41.321Z,0
2019-02-08T18:32:50.414Z,0
2019-02-08T18:32:59.146Z,0
2019-02-08T18:33:07.512Z,0
2019-02-08T18:33:17.113Z,0
2019-02-08T18:33:25.418Z,0
2019-02-08T18:33:34.015Z,0
2019-02-08T18:33:42.654Z,0
2019-02-08T18:33:53.111Z,0
2019-02-08T18:34:01.788Z,0
2019-02-08T18:34:10.330Z,0
2019-02-08T18:34:18.805Z,0
2019-02-08T18:34:27.644Z,0
2019-02-08T18:34:36.437Z,0
2019-02-08T18:34:46.236Z,0
2019-02-08T18:34:55.077Z,0
2019-02-08T18:35:03.734Z,0
2019-02-08T18:35:12.914Z,0
2019-02-08T18:35:21.919Z,0
2019-02-08T18:35:31.223Z,0
2019-02-08T18:35:40.546Z,0
2019-02-08T18:35:49.737Z,0
2019-02-08T18:36:00.053Z,0
2019-02-08T18:36:08.994Z,0
2019-02-08T18:36:19.167Z,0
2019-02-08T18:36:28.493Z,0
2019-02-08T18:36:37.677Z,0
2019-02-08T18:36:46.537Z,0
2019-02-08T18:36:55.868Z,0
2019-02-08T18:37:04.544Z,0
2019-02-08T18:37:13.723Z,0
2019-02-08T18:37:22.927Z,0
2019-02-08T18:37:32.293Z,0
2019-02-08T18:37:41.641Z,0
2019-02-08T18:37:51.044Z,0
2019-02-08T18:38:01.001Z,0
2019-02-08T18:38:10.242Z,0
2019-02-08T18:38:19.311Z,0
2019-02-08T18:38:28.684Z,0
2019-02-08T18:38:37.996Z,0
2019-02-08T18:38:47.355Z,0
2019-02-08T18:38:58.410Z,0
2019-02-08T18:39:07.284Z,0
2019-02-08T18:39:16.642Z,0
2019-02-08T18:39:25.966Z,0
2019-02-08T18:39:35.110Z,0
2019-02-08T18:39:44.392Z,0
2019-02-08T18:39:53.712Z,0
2019-02-08T18:40:02.730Z,0
2019-02-08T18:40:11.739Z,0
2019-02-08T18:40:21.049Z,0
2019-02-08T18:40:30.418Z,0
2019-02-08T18:40:39.600Z,0
2019-02-08T18:40:48.341Z,0
2019-02-08T18:40:57.690Z,0
2019-02-08T18:41:07.157Z,0
2019-02-08T18:41:16.496Z,0
2019-02-08T18:41:25.825Z,0
2019-02-08T18:41:34.828Z,0
2019-02-08T18:41:44.000Z,0
2019-02-08T18:41:54.404Z,0
2019-02-08T18:42:03.218Z,0
2019-02-08T18:42:12.617Z,0
2019-02-08T18:42:21.962Z,0
2019-02-08T18:42:31.109Z,0
2019-02-08T18:42:40.452Z,0
2019-02-08T18:42:49.593Z,0
2019-02-08T18:42:58.922Z,0
2019-02-08T18:43:07.941Z,0
2019-02-08T18:43:17.265Z,0
2019-02-08T18:43:27.601Z,0
2019-02-08T18:43:36.951Z,0
2019-02-08T18:43:46.172Z,0
2019-02-08T18:43:55.509Z,0
2019-02-08T18:44:05.594Z,0
2019-02-08T18:44:14.759Z,0
2019-02-08T18:44:24.619Z,0
2019-02-08T18:44:34.623Z,0
2019-02-08T18:44:44.802Z,0
2019-02-08T18:44:54.548Z,0
2019-02-08T18:45:04.468Z,0
2019-02-08T18:45:14.121Z,0
2019-02-08T18:45:24.282Z,0
2019-02-08T18:45:34.270Z,0
2019-02-08T18:45:44.433Z,0
2019-02-08T18:45:54.471Z,0
2019-02-08T18:46:04.573Z,0
2019-02-08T18:46:14.106Z,0
2019-02-08T18:46:24.202Z,0
2019-02-08T18:46:34.179Z,0
2019-02-08T18:46:44.199Z,0
2019-02-08T18:46:54.424Z,0
2019-02-08T18:47:04.175Z,0
2019-02-08T18:47:13.998Z,0
2019-02-08T18:47:24.057Z,0
2019-02-08T18:47:34.060Z,0
2019-02-08T18:47:43.348Z,0
2019-02-08T18:47:52.721Z,0
2019-02-08T18:48:01.647Z,0
2019-02-08T18:48:10.968Z,0
2019-02-08T18:48:20.302Z,0
2019-02-08T18:48:29.325Z,0
2019-02-08T18:48:38.770Z,0
2019-02-08T18:48:48.278Z,0
2019-02-08T18:48:57.433Z,0
2019-02-08T18:49:05.619Z,0
2019-02-08T18:49:13.961Z,0
2019-02-08T18:49:22.115Z,0
2019-02-08T18:49:30.361Z,0
2019-02-08T18:49:39.483Z,0
2019-02-08T18:49:47.650Z,0
2019-02-08T18:49:55.804Z,0
2019-02-08T18:50:03.903Z,0
2019-02-08T18:50:13.067Z,0
2019-02-08T18:50:21.231Z,0
2019-02-08T18:50:29.497Z,0
2019-02-08T18:50:38.464Z,0
2019-02-08T18:50:46.606Z,0
2019-02-08T18:50:54.742Z,0
2019-02-08T18:51:04.926Z,0
2019-02-08T18:51:13.065Z,0
2019-02-08T18:51:21.209Z,0
2019-02-08T18:51:29.355Z,0
2019-02-08T18:51:37.513Z,0
2019-02-08T18:51:45.659Z,0
2019-02-08T18:51:53.846Z,0
2019-02-08T18:52:02.065Z,0
2019-02-08T18:52:10.250Z,0
2019-02-08T18:52:19.410Z,0
2019-02-08T18:52:27.573Z,0
2019-02-08T18:52:35.714Z,0
2019-02-08T18:52:43.838Z,0
2019-02-08T18:52:52.958Z,0
2019-02-08T18:53:01.127Z,0
2019-02-08T18:53:11.240Z,0
2019-02-08T18:53:19.417Z,0
2019-02-08T18:53:27.568Z,0
2019-02-08T18:53:35.712Z,0
2019-02-08T18:53:44.845Z,0
2019-02-08T18:53:52.970Z,0
2019-02-08T18:54:01.094Z,0
2019-02-08T18:54:11.832Z,0
2019-02-08T18:54:20.504Z,0
2019-02-08T18:54:29.251Z,0
2019-02-08T18:54:38.597Z,0
2019-02-08T18:54:48.795Z,0
2019-02-08T18:54:59.149Z,0
2019-02-08T18:55:07.955Z,0
2019-02-08T18:55:16.961Z,0
2019-02-08T18:55:25.979Z,0
2019-02-08T18:55:35.182Z,0
2019-02-08T18:55:44.339Z,0
2019-02-08T18:55:53.699Z,0
2019-02-08T18:56:02.728Z,0
2019-02-08T18:56:12.078Z,0
2019-02-08T18:56:21.483Z,0
2019-02-08T18:56:30.126Z,0
2019-02-08T18:56:39.475Z,0
2019-02-08T18:56:48.805Z,0
2019-02-08T18:56:58.109Z,0
2019-02-08T18:57:07.965Z,0
2019-02-08T18:57:17.311Z,0
2019-02-08T18:57:28.565Z,0
2019-02-08T18:57:37.888Z,0
2019-02-08T18:57:47.171Z,0
2019-02-08T18:57:56.516Z,0
2019-02-08T18:58:06.177Z,0
2019-02-08T18:58:19.320Z,0
2019-02-08T18:58:28.090Z,0
2019-02-08T18:58:37.264Z,0
2019-02-08T18:58:46.584Z,0
2019-02-08T18:58:55.903Z,0
2019-02-08T18:59:06.257Z,0
2019-02-08T18:59:15.609Z,0
2019-02-08T18:59:25.477Z,0
2019-02-08T18:59:34.815Z,0
2019-02-08T18:59:44.128Z,0
2019-02-08T18:59:53.306Z,0
2019-02-08T19:00:03.122Z,0
2019-02-08T19:00:12.095Z,0
2019-02-08T19:00:22.304Z,0
2019-02-08T19:00:39.393Z,0
2019-02-08T19:00:44.563Z,0
2019-02-08T19:00:53.822Z,0
2019-02-08T19:01:03.398Z,0
2019-02-08T19:01:13.772Z,0
2019-02-08T19:01:22.907Z,0
2019-02-08T19:01:32.083Z,0
2019-02-08T19:01:41.381Z,0
2019-02-08T19:01:50.207Z,0
2019-02-08T19:01:59.431Z,0
2019-02-08T19:02:08.437Z,0
2019-02-08T19:02:17.787Z,0
2019-02-08T19:02:27.109Z,0
2019-02-08T19:02:35.825Z,0
2019-02-08T19:02:44.198Z,0
2019-02-08T19:02:53.091Z,0
2019-02-08T19:03:01.776Z,0
2019-02-08T19:03:11.922Z,0
2019-02-08T19:03:21.026Z,0
2019-02-08T19:03:30.035Z,0
2019-02-08T19:03:39.108Z,0
2019-02-08T19:03:48.457Z,0
2019-02-08T19:03:57.562Z,0
2019-02-08T19:04:06.348Z,0
2019-02-08T19:04:15.485Z,0
2019-02-08T19:04:24.061Z,0
2019-02-08T19:04:33.215Z,0
2019-02-08T19:04:42.198Z,0
2019-02-08T19:04:51.091Z,0
2019-02-08T19:05:00.274Z,0
2019-02-08T19:05:09.114Z,0
2019-02-08T19:05:18.125Z,0
2019-02-08T19:05:27.475Z,0
2019-02-08T19:05:36.036Z,0
2019-02-08T19:05:44.924Z,0
2019-02-08T19:05:55.040Z,0
2019-02-08T19:06:04.695Z,0
2019-02-08T19:06:14.072Z,0
2019-02-08T19:06:23.253Z,0
2019-02-08T19:06:32.503Z,0
2019-02-08T19:06:41.732Z,0
2019-02-08T19:06:51.163Z,0
2019-02-08T19:07:00.378Z,0
2019-02-08T19:07:09.465Z,0
2019-02-08T19:07:18.511Z,0
2019-02-08T19:07:27.887Z,0
2019-02-08T19:07:37.227Z,0
2019-02-08T19:07:46.099Z,0
2019-02-08T19:07:54.323Z,0
2019-02-08T19:08:02.585Z,0
2019-02-08T19:08:11.797Z,0
2019-02-08T19:08:20.177Z,0
2019-02-08T19:08:28.575Z,0
2019-02-08T19:08:38.843Z,0
2019-02-08T19:08:48.084Z,0
2019-02-08T19:08:56.536Z,0
2019-02-08T19:09:04.740Z,0
2019-02-08T19:09:13.918Z,0
2019-02-08T19:09:22.133Z,0
2019-02-08T19:09:31.244Z,0
2019-02-08T19:09:39.430Z,0
2019-02-08T19:09:47.613Z,0
2019-02-08T19:09:55.861Z,0
2019-02-08T19:10:04.107Z,0
2019-02-08T19:10:12.327Z,0
2019-02-08T19:10:20.763Z,0
2019-02-08T19:10:29.208Z,0
2019-02-08T19:10:39.960Z,0
2019-02-08T19:10:49.174Z,0
2019-02-08T19:10:57.657Z,0
2019-02-08T19:11:07.983Z,0
2019-02-08T19:11:17.137Z,0
2019-02-08T19:11:26.619Z,0
2019-02-08T19:11:35.956Z,0
2019-02-08T19:11:45.171Z,0
2019-02-08T19:11:54.380Z,0
